Time;durP1;ratioP1;P1;durP2;ratioP2;P2;SDS_P1;SDS_P2;PMS_P1;PMS_P2;Temp;Humidity;BMP_temperature;BMP_pressure;BME280_temperature;BME280_humidity;BME280_pressure;Samples;Min_cycle;Max_cycle;Signal;HPM_P1;HPM_P2
2022/05/17 00:00:36;;;;;;;8.90;3.13;;;;;;;-146.64;100.00;114394.19;5071034;28;20024;-71
2022/05/17 00:03:02;;;;;;;16.57;2.70;;;;;;;-146.64;100.00;113860.38;5091854;28;20035;-71
2022/05/17 00:05:28;;;;;;;7.70;2.87;;;;;;;-146.64;100.00;114127.28;5081955;28;20036;-71
2022/05/17 00:07:54;;;;;;;10.77;2.93;;;;;;;-146.64;100.00;114661.13;5075695;28;20284;-71
2022/05/17 00:10:21;;;;;;;10.83;3.30;;;;;;;-146.64;100.00;114394.19;5056485;28;20036;-71
2022/05/17 00:12:47;;;;;;;6.95;2.40;;;;;;;-146.64;100.00;112792.97;5074418;28;20032;-72
2022/05/17 00:15:12;;;;;;;12.57;2.73;;;;;;;-146.64;100.00;114394.19;5073094;28;20379;-71
2022/05/17 00:17:38;;;;;;;7.00;2.97;;;;;;;-146.64;100.00;114661.13;5071610;28;20069;-72
2022/05/17 00:20:03;;;;;;;5.67;2.33;;;;;;;-146.64;100.00;114127.28;5074175;28;20210;-71
2022/05/17 00:22:29;;;;;;;10.10;3.23;;;;;;;-146.64;100.00;113326.63;5072643;28;20188;-72
2022/05/17 00:24:54;;;;;;;5.73;2.63;;;;;;;-146.64;100.00;113593.50;5091560;28;20058;-71
2022/05/17 00:27:19;;;;;;;9.10;2.67;;;;;;;-146.64;100.00;114394.19;5091217;28;20032;-71
2022/05/17 00:29:45;;;;;;;13.80;2.80;;;;;;;-146.64;100.00;113860.38;5088128;28;20074;-71
2022/05/17 00:32:10;;;;;;;6.00;2.00;;;;;;;-146.64;100.00;113326.63;5092143;28;20067;-71
2022/05/17 00:34:36;;;;;;;8.27;2.73;;;;;;;-146.64;100.00;113059.81;5089061;28;20414;-71
2022/05/17 00:37:01;;;;;;;10.73;3.25;;;;;;;-146.64;100.00;113059.81;5088437;28;20125;-71
2022/05/17 00:39:27;;;;;;;6.53;2.60;;;;;;;-146.64;100.00;111459.13;5084468;28;20119;-72
2022/05/17 00:41:52;;;;;;;10.73;2.53;;;;;;;-146.64;100.00;112792.97;5072299;28;20024;-71
2022/05/17 00:47:06;;;;;;;9.38;2.78;;;;;;;-146.64;100.00;112526.16;5084712;28;20082;-71
2022/05/17 00:49:41;;;;;;;10.93;2.33;;;;;;;-146.64;100.00;112792.97;5068918;28;20445;-71
2022/05/17 00:52:11;;;;;;;6.95;2.63;;;;;;;-146.64;100.00;112259.38;5069435;28;20527;-71
2022/05/17 00:54:38;;;;;;;6.97;2.15;;;;;;;-146.64;100.00;111992.59;5070757;28;20036;-71
2022/05/17 00:57:07;;;;;;;;;;;;;;;-146.64;100.00;111725.84;5070751;28;20050;-71
2022/05/17 00:59:34;;;;;;;7.93;2.60;;;;;;;-146.64;100.00;111192.41;5068834;28;20342;-71
2022/05/17 01:01:59;;;;;;;9.18;2.50;;;;;;;-146.64;100.00;111459.13;5070805;28;20063;-71
2022/05/17 01:04:25;;;;;;;7.13;2.30;;;;;;;-146.64;100.00;111459.13;5072053;28;20036;-71
2022/05/17 01:07:01;;;;;;;10.97;3.10;;;;;;;-146.64;100.00;111459.13;5074037;28;20482;-71
2022/05/17 01:09:27;;;;;;;10.93;3.45;;;;;;;-146.64;100.00;111992.59;5087673;28;20111;-71
2022/05/17 01:11:52;;;;;;;7.07;2.60;;;;;;;-146.64;100.00;112259.38;5091351;28;20443;-71
2022/05/17 01:17:03;;;;;;;5.63;2.60;;;;;;;-146.64;100.00;111459.13;5090431;28;20089;-70
2022/05/17 01:19:28;;;;;;;13.60;3.37;;;;;;;-146.64;100.00;111725.84;5087239;28;20028;-71
2022/05/17 01:21:54;;;;;;;10.80;3.03;;;;;;;-146.64;100.00;112259.38;5090782;28;20068;-71
2022/05/17 01:24:19;;;;;;;9.37;2.60;;;;;;;-146.64;100.00;111192.41;5088899;28;20039;-70
2022/05/17 01:26:48;;;;;;;11.67;2.80;;;;;;;-146.64;100.00;111725.84;5089922;28;20505;-71
2022/05/17 01:29:13;;;;;;;9.55;2.90;;;;;;;-146.64;100.00;112526.16;5069502;28;20039;-70
2022/05/17 01:31:39;;;;;;;9.53;2.57;;;;;;;-146.64;100.00;111992.59;5071291;28;20415;-70
2022/05/17 01:34:06;;;;;;;5.40;2.60;;;;;;;-146.64;100.00;113326.63;5088594;28;20048;-67
2022/05/17 01:36:32;;;;;;;9.52;3.08;;;;;;;-146.64;100.00;113059.81;5091936;28;20028;-69
2022/05/17 01:38:57;;;;;;;8.03;3.13;;;;;;;-146.64;100.00;113593.50;5086651;28;20098;-68
2022/05/17 01:41:24;;;;;;;11.57;3.50;;;;;;;-146.64;100.00;114394.19;5090996;28;20027;-68
2022/05/17 01:43:53;;;;;;;7.30;2.70;;;;;;;-146.64;100.00;115195.03;5086998;28;20031;-67
2022/05/17 01:46:19;;;;;;;11.02;2.92;;;;;;;-146.64;100.00;114661.13;5088621;28;20460;-67
2022/05/17 01:48:44;;;;;;;8.27;2.60;;;;;;;-146.64;100.00;115195.03;5088322;28;20028;-70
2022/05/17 01:51:10;;;;;;;6.57;2.90;;;;;;;-146.64;100.00;114928.06;5081289;28;20044;-67
2022/05/17 01:53:37;;;;;;;13.25;3.13;;;;;;;-146.64;100.00;115195.03;5051461;28;20035;-70
2022/05/17 01:56:04;;;;;;;8.45;3.38;;;;;;;-146.64;100.00;114394.19;5052823;28;20032;-69
2022/05/17 01:58:29;;;;;;;9.30;3.08;;;;;;;-146.64;100.00;114928.06;5086848;28;20071;-69
2022/05/17 02:00:54;;;;;;;5.37;2.47;;;;;;;-146.64;100.00;115195.03;5084505;28;20059;-69
2022/05/17 02:03:20;;;;;;;6.87;2.30;;;;;;;-146.64;100.00;115195.03;5089851;28;20541;-68
2022/05/17 02:05:46;;;;;;;8.83;3.13;;;;;;;-146.64;100.00;115462.00;5088331;28;20040;-69
2022/05/17 02:08:11;;;;;;;8.67;2.47;;;;;;;-146.64;100.00;115195.03;5054875;28;20069;-69
2022/05/17 02:10:36;;;;;;;7.57;2.80;;;;;;;-146.64;100.00;115729.00;5071100;28;20066;-70
2022/05/17 02:13:02;;;;;;;9.33;2.97;;;;;;;-146.64;100.00;117331.34;5087683;28;20032;-69
2022/05/17 02:15:27;;;;;;;14.67;3.30;;;;;;;-146.64;100.00;117865.63;5071553;28;20028;-68
2022/05/17 02:17:53;;;;;;;8.20;3.27;;;;;;;-146.64;100.00;117064.25;5069311;28;20054;-68
2022/05/17 02:20:18;;;;;;;6.40;2.60;;;;;;;-146.64;100.00;117064.25;5069513;28;20035;-69
2022/05/17 02:22:44;;;;;;;11.63;3.30;;;;;;;-146.64;100.00;117598.47;5069601;28;20124;-69
2022/05/17 02:25:11;;;;;;;10.97;3.10;;;;;;;-146.64;100.00;118132.78;5090318;28;20024;-69
2022/05/17 02:27:37;;;;;;;7.93;2.63;;;;;;;-146.64;100.00;118132.78;5091008;28;20068;-70
2022/05/17 02:30:05;;;;;;;8.82;3.10;;;;;;;-146.64;100.00;117865.63;5066017;28;20109;-68
2022/05/17 02:32:30;;;;;;;7.03;3.15;;;;;;;-146.64;100.00;117865.63;5071156;28;20130;-69
2022/05/17 02:34:56;;;;;;;9.33;2.83;;;;;;;-146.64;100.00;117865.63;5086888;28;20502;-69
2022/05/17 02:37:21;;;;;;;5.17;2.90;;;;;;;-146.64;100.00;118399.94;5070685;28;20490;-68
2022/05/17 02:39:46;;;;;;;14.83;3.03;;;;;;;-146.64;100.00;118399.94;5068996;28;20038;-70
2022/05/17 02:42:12;;;;;;;11.30;3.67;;;;;;;-146.64;100.00;118402.03;5090235;28;20096;-69
2022/05/17 02:44:37;;;;;;;9.47;3.00;;;;;;;-146.64;100.00;118402.03;5051078;28;20127;-71
2022/05/17 02:47:04;;;;;;;9.73;3.10;;;;;;;-146.64;100.00;118402.03;5061720;28;20432;-70
2022/05/17 02:49:29;;;;;;;8.10;3.13;;;;;;;-146.64;100.00;118402.03;5068224;28;20407;-68
2022/05/17 02:51:54;;;;;;;12.10;3.20;;;;;;;-146.64;100.00;118402.03;5086901;28;20028;-69
2022/05/17 02:54:23;;;;;;;7.60;2.77;;;;;;;-146.64;100.00;118402.03;5086107;28;20020;-70
2022/05/17 02:56:48;;;;;;;6.38;2.78;;;;;;;-146.64;100.00;118402.03;5088639;28;20504;-68
2022/05/17 02:59:18;;;;;;;10.93;3.30;;;;;;;-146.64;100.00;118402.03;5086102;28;20066;-69
2022/05/17 03:01:44;;;;;;;7.18;2.63;;;;;;;-146.64;100.00;118402.03;5084366;28;20490;-69
2022/05/17 03:04:12;;;;;;;5.78;3.20;;;;;;;-146.64;100.00;118402.03;5068910;28;20032;-68
2022/05/17 03:06:38;;;;;;;6.35;3.03;;;;;;;-146.64;100.00;118402.03;5071991;28;20044;-69
2022/05/17 03:09:03;;;;;;;8.27;2.63;;;;;;;-146.64;100.00;118402.03;5086733;28;20035;-68
2022/05/17 03:11:28;;;;;;;5.40;3.00;;;;;;;-146.64;100.00;118402.03;5089653;28;20020;-69
2022/05/17 03:13:55;;;;;;;9.13;3.13;;;;;;;-146.64;100.00;118402.03;5086557;28;20024;-69
2022/05/17 03:16:20;;;;;;;8.60;3.45;;;;;;;-146.64;100.00;118402.03;5070273;28;20437;-68
2022/05/17 03:18:46;;;;;;;27.07;3.70;;;;;;;-146.64;100.00;118402.03;5040467;28;20036;-70
2022/05/17 03:21:11;;;;;;;8.13;3.53;;;;;;;-146.64;100.00;118402.03;5089829;28;20024;-68
2022/05/17 03:23:37;;;;;;;7.63;3.87;;;;;;;-146.64;100.00;118402.03;5085867;28;20089;-70
2022/05/17 03:26:03;;;;;;;9.20;3.50;;;;;;;-146.64;100.00;118402.03;5070393;28;20028;-69
2022/05/17 03:28:28;;;;;;;6.23;3.13;;;;;;;-146.64;100.00;118402.03;5067601;28;20063;-69
2022/05/17 03:30:53;;;;;;;7.23;2.77;;;;;;;-146.64;100.00;118399.94;5085443;28;20035;-69
2022/05/17 03:33:18;;;;;;;6.13;3.27;;;;;;;-146.64;100.00;118402.03;5086305;28;20059;-68
2022/05/17 03:35:44;;;;;;;8.70;3.50;;;;;;;-146.64;100.00;118402.03;5069641;28;20078;-69
2022/05/17 03:38:09;;;;;;;10.30;2.93;;;;;;;-146.64;100.00;118402.03;5085965;28;20368;-69
2022/05/17 03:40:34;;;;;;;7.37;3.30;;;;;;;-146.64;100.00;118402.03;5086886;28;20108;-71
2022/05/17 03:43:00;;;;;;;9.70;3.13;;;;;;;-146.64;100.00;118402.03;5066822;28;20024;-69
2022/05/17 03:45:25;;;;;;;10.37;3.53;;;;;;;-146.64;100.00;118402.03;5070297;28;20032;-69
2022/05/17 03:47:50;;;;;;;8.27;2.90;;;;;;;-146.64;100.00;118402.03;5084727;28;20379;-68
2022/05/17 03:50:17;;;;;;;7.33;3.43;;;;;;;-146.64;100.00;118402.03;5063217;28;20085;-71
2022/05/17 03:52:44;;;;;;;8.85;3.08;;;;;;;-146.64;100.00;118399.94;5064280;28;20028;-72
2022/05/17 03:55:09;;;;;;;9.43;3.25;;;;;;;-146.64;100.00;118399.94;5082114;28;20028;-72
2022/05/17 03:57:35;;;;;;;8.43;3.60;;;;;;;-146.64;100.00;118399.94;5077039;28;20205;-72
2022/05/17 04:00:00;;;;;;;10.47;3.63;;;;;;;-146.64;100.00;118132.78;5066393;28;20039;-72
2022/05/17 04:02:26;;;;;;;10.87;3.63;;;;;;;-146.64;100.00;118132.78;5082876;28;20040;-72
2022/05/17 04:04:53;;;;;;;9.63;4.30;;;;;;;-146.64;100.00;118399.94;5076944;28;20453;-72
2022/05/17 04:07:18;;;;;;;;;;;;;;;-146.64;100.00;118399.94;5053842;28;20402;-72
2022/05/17 04:09:43;;;;;;;10.32;4.15;;;;;;;-146.64;100.00;118399.94;5068884;28;19931;-72
2022/05/17 04:12:09;;;;;;;10.97;3.53;;;;;;;-146.64;100.00;118132.78;5067513;28;20036;-72
2022/05/17 04:14:34;;;;;;;8.70;3.60;;;;;;;-146.64;100.00;117865.63;5069060;28;20032;-72
2022/05/17 04:17:00;;;;;;;10.30;3.90;;;;;;;-146.64;100.00;117865.63;5077280;28;20073;-72
2022/05/17 04:19:25;;;;;;;5.83;3.80;;;;;;;-146.64;100.00;117598.47;5080371;28;20478;-71
2022/05/17 04:21:50;;;;;;;12.07;4.00;;;;;;;-146.64;100.00;118132.78;5078792;28;20033;-71
2022/05/17 04:24:15;;;;;;;8.73;3.37;;;;;;;-146.64;100.00;118132.78;5064206;28;20482;-72
2022/05/17 04:26:41;;;;;;;5.10;3.33;;;;;;;-146.64;100.00;118132.78;5062968;28;20039;-73
2022/05/17 04:29:07;;;;;;;15.95;3.40;;;;;;;-146.64;100.00;118399.94;5067952;28;20498;-71
2022/05/17 04:31:33;;;;;;;6.50;3.30;;;;;;;-146.64;100.00;118399.94;5089720;28;20032;-72
2022/05/17 04:33:59;;;;;;;10.43;3.10;;;;;;;-146.64;100.00;117865.63;5086238;28;20625;-72
2022/05/17 04:36:24;;;;;;;15.10;4.13;;;;;;;-146.64;100.00;118132.78;5065320;28;20524;-72
2022/05/17 04:38:50;;;;;;;9.53;3.83;;;;;;;-146.64;100.00;117865.63;5064253;28;20430;-72
2022/05/17 04:41:15;;;;;;;9.90;4.13;;;;;;;-146.64;100.00;117865.63;5048358;28;20089;-72
2022/05/17 04:43:40;;;;;;;15.80;4.07;;;;;;;-146.64;100.00;117331.34;5092614;28;20028;-72
2022/05/17 04:46:08;;;;;;;10.97;4.20;;;;;;;-146.64;100.00;116797.16;5072626;28;20031;-72
2022/05/17 04:48:34;;;;;;;13.88;4.25;;;;;;;-146.64;100.00;116263.06;5061168;28;20094;-72
2022/05/17 04:50:59;;;;;;;10.90;4.47;;;;;;;-146.64;100.00;114928.06;5082945;28;20024;-72
2022/05/17 04:53:24;;;;;;;14.17;4.33;;;;;;;-146.64;100.00;113326.63;5064267;28;20032;-72
2022/05/17 04:55:50;;;;;;;15.40;4.00;;;;;;;-146.64;100.00;111725.84;5059770;28;20036;-72
2022/05/17 04:58:15;;;;;;;13.27;3.40;;;;;;;-146.64;100.00;108792.72;5052678;28;20118;-72
2022/05/17 05:00:40;;;;;;;9.40;3.10;;;;;;;-146.64;100.00;107726.63;5083607;28;20028;-72
2022/05/17 05:03:05;;;;;;;9.53;3.30;;;;;;;-146.64;100.00;106394.44;5063733;28;20467;-72
2022/05/17 05:05:31;;;;;;;15.37;3.63;;;;;;;-146.64;100.00;107726.63;5082608;28;20039;-72
2022/05/17 05:07:56;;;;;;;11.63;3.83;;;;;;;-146.64;100.00;109059.28;5046733;28;20043;-73
2022/05/17 05:10:22;;;;;;;11.27;3.17;;;;;;;-146.64;100.00;109059.28;5063704;28;20115;-72
2022/05/17 05:12:48;;;;;;;6.93;2.80;;;;;;;-146.64;100.00;110925.69;5061718;28;20036;-72
2022/05/17 05:15:14;;;;;;;9.90;3.37;;;;;;;-146.64;100.00;111725.84;5066974;28;20036;-72
2022/05/17 05:17:39;;;;;;;13.37;3.73;;;;;;;-146.64;100.00;112259.38;5083657;28;20029;-72
2022/05/17 05:20:07;;;;;;;9.57;3.40;;;;;;;-146.64;100.00;111992.59;5080226;28;20024;-73
2022/05/17 05:22:33;;;;;;;10.27;2.92;;;;;;;-146.64;100.00;113326.63;5079316;28;20032;-72
2022/05/17 05:24:59;;;;;;;11.20;3.70;;;;;;;-146.64;100.00;114127.28;5083444;28;20035;-73
2022/05/17 05:27:24;;;;;;;9.47;3.50;;;;;;;-146.64;100.00;115195.03;5083255;28;20500;-71
2022/05/17 05:29:49;;;;;;;8.03;3.37;;;;;;;-146.64;100.00;115729.00;5066176;28;20148;-71
2022/05/17 05:32:15;;;;;;;9.03;3.80;;;;;;;-146.64;100.00;116263.06;5063677;28;20444;-72
2022/05/17 05:34:40;;;;;;;8.20;3.87;;;;;;;-146.64;100.00;116530.09;5048816;28;20391;-72
2022/05/17 05:37:05;;;;;;;8.17;3.83;;;;;;;-146.64;100.00;117331.34;5066875;28;20498;-73
2022/05/17 05:39:31;;;;;;;15.10;4.63;;;;;;;-146.64;100.00;116797.16;5070806;28;20039;-73
2022/05/17 05:41:57;;;;;;;13.00;4.03;;;;;;;-146.64;100.00;117064.25;5069291;28;20028;-73
2022/05/17 05:44:22;;;;;;;11.03;4.13;;;;;;;-146.64;100.00;116263.06;5073160;28;20044;-72
2022/05/17 05:46:48;;;;;;;12.53;4.13;;;;;;;-146.64;100.00;117064.25;5053791;28;20020;-72
2022/05/17 05:49:13;;;;;;;12.33;3.93;;;;;;;-146.64;100.00;117598.47;5053355;28;20394;-73
2022/05/17 05:51:40;;;;;;;13.33;3.83;;;;;;;-146.64;100.00;117331.34;5079861;28;20494;-73
2022/05/17 05:54:06;;;;;;;13.27;3.63;;;;;;;-146.64;100.00;117331.34;5053490;28;20119;-73
2022/05/17 05:56:31;;;;;;;12.03;3.67;;;;;;;-146.64;100.00;118399.94;5066650;28;20143;-73
2022/05/17 05:58:56;;;;;;;9.37;3.93;;;;;;;-146.64;100.00;118402.03;5068653;28;20028;-73
2022/05/17 06:01:22;;;;;;;9.60;3.87;;;;;;;-146.64;100.00;118399.94;5086102;28;20441;-73
2022/05/17 06:03:47;;;;;;;14.37;3.47;;;;;;;-146.64;100.00;117331.34;5063449;28;20036;-73
2022/05/17 06:06:14;;;;;;;11.03;4.07;;;;;;;-146.64;100.00;118132.78;5090827;28;20028;-73
2022/05/17 06:08:39;;;;;;;11.73;4.30;;;;;;;-146.64;100.00;118132.78;5070415;28;20081;-73
2022/05/17 06:11:05;;;;;;;15.23;4.17;;;;;;;-146.64;100.00;117865.63;5059597;28;20448;-73
2022/05/17 06:13:31;;;;;;;15.40;4.30;;;;;;;-146.64;100.00;116530.09;5070285;28;20040;-73
2022/05/17 06:15:56;;;;;;;15.32;4.40;;;;;;;-146.64;100.00;115729.00;5089505;28;20040;-72
2022/05/17 06:18:21;;;;;;;10.67;4.77;;;;;;;-146.64;100.00;117865.63;5086833;28;20024;-73
2022/05/17 06:20:51;;;;;;;15.87;4.57;;;;;;;-146.64;100.00;117598.47;5079854;28;20107;-73
2022/05/17 06:23:18;;;;;;;15.50;4.40;;;;;;;-146.64;100.00;116530.09;5054779;28;20043;-73
2022/05/17 06:25:43;;;;;;;22.42;4.30;;;;;;;-146.64;100.00;116263.06;5068910;28;20163;-73
2022/05/17 06:28:09;;;;;;;10.67;3.80;;;;;;;-146.64;100.00;116263.06;5069452;28;20646;-72
2022/05/17 06:30:35;;;;;;;13.23;3.63;;;;;;;-146.64;100.00;113326.63;5071611;28;20032;-73
2022/05/17 06:33:01;;;;;;;11.23;4.30;;;;;;;-146.64;100.00;111459.13;5089305;28;20028;-73
2022/05/17 06:35:26;;;;;;;12.80;3.53;;;;;;;-146.64;100.00;111992.59;5072648;28;20111;-73
2022/05/17 06:37:52;;;;;;;13.85;4.60;;;;;;;-146.64;100.00;112259.38;5068972;28;20034;-72
2022/05/17 06:40:18;;;;;;;15.47;4.03;;;;;;;-146.64;100.00;110659.00;5086757;28;20387;-73
2022/05/17 06:42:43;;;;;;;17.03;4.77;;;;;;;-146.64;100.00;110392.34;5070925;28;20028;-73
2022/05/17 06:45:09;;;;;;;8.63;4.37;;;;;;;-146.64;100.00;110659.00;5089306;28;20031;-73
2022/05/17 06:47:34;;;;;;;11.97;4.00;;;;;;;-146.64;100.00;112526.16;5089363;28;20671;-73
2022/05/17 06:49:59;;;;;;;13.70;3.80;;;;;;;-146.64;100.00;111192.41;5067358;28;20032;-73
2022/05/17 06:52:27;;;;;;;9.00;4.50;;;;;;;-146.64;100.00;111192.41;5065880;28;20032;-73
2022/05/17 06:54:53;;;;;;;9.68;3.97;;;;;;;-146.64;100.00;108259.63;5052917;28;20059;-73
2022/05/17 06:57:18;;;;;;;13.90;4.30;;;;;;;-146.64;100.00;99474.03;5086766;28;20059;-73
2022/05/17 06:59:45;;;;;;;14.60;4.23;;;;;;;-146.64;100.00;96283.97;5066571;28;20031;-73
2022/05/17 07:02:11;;;;;;;15.95;4.18;;;;;;;-146.64;100.00;94424.25;5051727;28;20044;-73
2022/05/17 07:04:36;;;;;;;13.38;4.30;;;;;;;-146.64;100.00;95221.19;5065399;28;20461;-72
2022/05/17 07:07:02;;;;;;;16.53;3.77;;;;;;;-146.64;100.00;93096.44;5051030;28;20044;-73
2022/05/17 07:09:28;;;;;;;20.60;3.63;;;;;;;-146.64;100.00;89911.41;5052609;28;20028;-73
2022/05/17 07:14:38;;;;;;;11.63;4.00;;;;;;;-146.64;100.00;87259.13;5087963;28;20054;-73
2022/05/17 07:17:10;;;;;;;10.23;4.03;;;;;;;-146.64;100.00;85933.66;5064675;28;20111;-73
2022/05/17 07:19:36;;;;;;;15.48;4.82;;;;;;;-146.64;100.00;80371.41;5078797;28;20036;-73
2022/05/17 07:22:03;;;;;;;8.47;3.37;;;;;;;-146.64;100.00;64258.03;5084034;28;20042;-73
2022/05/17 07:24:28;;;;;;;;;;;;;;;-146.64;100.00;66103.78;5053277;28;20036;-73
2022/05/17 07:26:54;;;;;;;9.98;3.17;;;;;;;-146.64;100.00;62676.59;5078671;28;20314;-73
2022/05/17 07:29:19;;;;;;;10.43;3.25;;;;;;;-146.64;100.00;43080.78;5085594;28;20027;-73
2022/05/17 07:31:45;;;;;;;13.33;3.77;;;;;;;-146.64;100.00;42359.75;5084819;28;20036;-72
2022/05/17 07:34:10;;;;;;;12.27;3.50;;;;;;;-146.64;100.00;55305.00;5068263;28;20131;-72
2022/05/17 07:36:35;;;;;;;12.20;3.83;;;;;;;-146.64;100.00;42707.94;5064256;28;20032;-73
2022/05/17 07:39:01;;;;;;;9.93;3.10;;;;;;;-146.64;100.00;64258.03;5049319;28;20052;-72
2022/05/17 07:41:26;;;;;;;18.53;5.30;;;;;;;-146.64;100.00;54253.00;5083135;28;20040;-72
2022/05/17 07:43:51;;;;;;;7.07;2.93;;;;;;;-146.64;100.00;39198.63;5063520;28;20433;-73
2022/05/17 07:46:17;;;;;;;12.27;3.27;;;;;;;-146.64;100.00;40854.63;5061294;28;20070;-73
2022/05/17 07:48:43;;;;;;;11.57;3.50;;;;;;;-146.64;100.00;44697.41;5065243;28;20115;-73
2022/05/17 07:51:08;;;;;;;9.95;3.20;;;;;;;-146.64;100.00;45213.91;5070592;28;20028;-72
2022/05/17 07:53:34;;;;;;;11.17;3.13;;;;;;;-146.64;100.00;55831.06;5085030;28;20051;-73
2022/05/17 07:56:00;;;;;;;11.30;4.03;;;;;;;-146.64;100.00;39438.06;5070702;28;20451;-73
2022/05/17 07:58:25;;;;;;;10.05;3.50;;;;;;;-146.64;100.00;38721.81;5069234;28;20024;-73
2022/05/17 08:00:51;;;;;;;10.33;3.90;;;;;;;-146.64;100.00;41741.25;5070604;28;20040;-72
2022/05/17 08:03:18;;;;;;;14.40;3.20;;;;;;;-146.64;100.00;38574.47;5069709;28;20046;-72
2022/05/17 08:05:44;;;;;;;12.00;3.55;;;;;;;-146.64;100.00;38601.06;5071682;28;20060;-72
2022/05/17 08:08:10;;;;;;;10.37;3.03;;;;;;;-146.64;100.00;39333.69;5069561;28;20439;-72
2022/05/17 08:10:36;;;;;;;12.55;4.05;;;;;;;-146.64;100.00;38302.34;5057459;28;20560;-72
2022/05/17 08:13:01;;;;;;;11.40;4.07;;;;;;;-146.64;100.00;37856.31;5071577;28;20063;-72
2022/05/17 08:15:28;;;;;;;9.17;3.23;;;;;;;-146.64;100.00;37745.84;5073816;28;20094;-72
2022/05/17 08:17:55;;;;;;;11.63;3.78;;;;;;;-146.64;100.00;37639.47;5087880;28;20038;-72
2022/05/17 08:20:20;;;;;;;;;;;;;;;-146.64;100.00;37684.47;5074294;28;20039;-72
2022/05/17 08:22:46;;;;;;;10.27;3.30;;;;;;;-146.64;100.00;37533.09;5072551;28;20366;-72
2022/05/17 08:28:03;;;;;;;15.15;3.10;;;;;;;-146.64;100.00;37359.22;5069745;28;20409;-72
2022/05/17 08:30:29;;;;;;;12.48;3.10;;;;;;;-146.64;100.00;37340.81;5091478;28;20036;-72
2022/05/17 08:33:15;;;;;;;13.18;3.58;;;;;;;-146.64;100.00;37402.16;5055142;28;20032;-72
2022/05/17 08:35:56;;;;;;;14.20;3.20;;;;;;;-146.64;100.00;37267.16;5076344;28;20020;-72
2022/05/17 08:38:30;;;;;;;7.78;3.90;;;;;;;-146.64;100.00;37246.72;5055959;28;20031;-72
2022/05/17 08:41:24;;;;;;;9.88;3.60;;;;;;;-146.64;100.00;37285.56;5073330;28;20412;-72
2022/05/17 08:44:00;;;;;;;8.43;2.78;;;;;;;-146.64;100.00;37205.78;5061145;28;20093;-72
2022/05/17 08:46:32;;;;;;;12.48;3.30;;;;;;;-146.64;100.00;37205.78;5073622;28;20036;-73
2022/05/17 08:49:12;;;;;;;11.35;3.15;;;;;;;-146.64;100.00;37099.44;5070385;28;20119;-72
2022/05/17 08:51:43;;;;;;;13.43;3.20;;;;;;;-146.64;100.00;37062.63;5055829;28;20340;-72
2022/05/17 08:54:12;;;;;;;9.10;3.80;;;;;;;-146.64;100.00;37130.13;5072959;28;20032;-71
2022/05/17 08:56:51;;;;;;;12.10;3.47;;;;;;;-146.64;100.00;37058.53;5071843;28;20033;-71
2022/05/17 08:59:20;;;;;;;14.15;3.65;;;;;;;-146.64;100.00;37209.88;5072250;28;20062;-71
2022/05/17 09:01:50;;;;;;;12.57;3.67;;;;;;;-146.64;100.00;36968.53;5067473;28;20024;-72
2022/05/17 09:04:41;;;;;;;11.52;4.35;;;;;;;-146.64;100.00;36917.41;5071756;28;20036;-71
2022/05/17 09:07:13;;;;;;;16.80;5.25;;;;;;;-146.64;100.00;36935.81;5071339;28;20119;-72
2022/05/17 09:10:18;;;;;;;12.23;5.82;;;;;;;-146.64;100.00;36831.50;5091194;28;20053;-71
2022/05/17 09:12:51;;;;;;;11.63;4.80;;;;;;;-146.64;100.00;36757.84;5069729;28;20580;-72
2022/05/17 09:15:17;;;;;;;11.52;4.35;;;;;;;-146.64;100.00;36825.34;5063581;28;20034;-72
2022/05/17 09:17:44;;;;;;;11.88;3.95;;;;;;;-146.64;100.00;36851.94;5086247;28;20047;-71
2022/05/17 09:20:09;;;;;;;;;;;;;;;-146.64;100.00;36868.31;5054663;28;20027;-72
2022/05/17 09:22:36;;;;;;;9.13;3.65;;;;;;;-146.64;100.00;36804.91;5051257;28;19915;-72
2022/05/17 09:25:13;;;;;;;13.43;4.60;;;;;;;-146.64;100.00;36782.41;5052500;28;20039;-72
2022/05/17 09:27:39;;;;;;;13.30;4.07;;;;;;;-146.64;100.00;36874.44;5068310;28;20024;-72
2022/05/17 09:30:32;;;;;;;10.05;4.68;;;;;;;-146.64;100.00;36901.03;5083283;28;20043;-71
2022/05/17 09:33:10;;;;;;;10.00;3.03;;;;;;;-146.64;100.00;36941.94;5069082;28;20143;-71
2022/05/17 09:36:02;;;;;;;14.55;3.47;;;;;;;-146.64;100.00;36993.06;5085777;28;20386;-72
2022/05/17 09:38:32;;;;;;;8.70;3.70;;;;;;;-146.64;100.00;36884.66;5067315;28;20081;-72
2022/05/17 09:40:58;;;;;;;10.70;3.47;;;;;;;-146.64;100.00;36956.25;5072330;28;20118;-72
2022/05/17 09:43:38;;;;;;;10.40;4.37;;;;;;;-146.64;100.00;36943.97;5071286;28;20135;-72
2022/05/17 09:46:12;;;;;;;14.85;4.18;;;;;;;-146.64;100.00;36839.66;5091531;28;20134;-72
2022/05/17 09:54:35;;;;;;;12.32;4.03;;;;;;;-146.64;100.00;36860.13;5074336;28;20047;-72
2022/05/17 09:57:18;;;;;;;8.27;3.58;;;;;;;-146.64;100.00;36747.63;5073028;28;20035;-72
2022/05/17 09:59:45;;;;;;;13.00;4.05;;;;;;;-146.64;100.00;36626.97;5054309;28;20040;-71
2022/05/17 10:02:34;;;;;;;11.88;4.05;;;;;;;-146.64;100.00;36731.28;5054669;28;20028;-71
2022/05/17 10:05:13;;;;;;;9.70;3.70;;;;;;;-146.64;100.00;36837.63;5063369;28;20032;-72
2022/05/17 10:07:38;;;;;;;10.98;3.30;;;;;;;-146.64;100.00;36655.59;5050808;28;20024;-72
2022/05/17 10:10:30;;;;;;;6.53;3.10;;;;;;;-146.64;100.00;36790.59;5087435;28;20345;-71
2022/05/17 10:13:01;;;;;;;12.00;3.72;;;;;;;-146.64;100.00;36684.22;5050850;28;20082;-72
2022/05/17 10:15:27;;;;;;;10.02;3.47;;;;;;;-146.64;100.00;36557.44;5084756;28;20024;-72
2022/05/17 10:17:56;;;;;;;11.02;3.75;;;;;;;-146.64;100.00;36539.03;5067870;28;20028;-72
2022/05/17 10:20:36;;;;;;;10.63;3.67;;;;;;;-146.64;100.00;36491.97;5073555;28;20032;-73
2022/05/17 10:23:25;;;;;;;6.70;2.92;;;;;;;-146.64;100.00;36751.72;5065695;28;20023;-72
2022/05/17 10:25:53;;;;;;;9.13;3.47;;;;;;;-146.64;100.00;36354.97;5066714;28;20032;-72
2022/05/17 10:28:43;;;;;;;12.15;3.92;;;;;;;-146.64;100.00;36052.31;5084525;28;20115;-73
2022/05/17 10:31:20;;;;;;;10.85;3.28;;;;;;;-146.64;100.00;36099.34;5067176;28;20024;-72
2022/05/17 10:33:48;;;;;;;;;;;;;;;-146.64;99.84;35839.63;5070196;28;20062;-72
2022/05/17 10:36:20;;;;;;;10.88;3.03;;;;;;;-146.64;100.00;36175.00;5089889;28;19942;-72
2022/05/17 10:39:01;;;;;;;9.35;3.22;;;;;;;-146.64;100.00;36211.81;5090674;28;20038;-72
2022/05/17 10:41:27;;;;;;;13.60;3.75;;;;;;;-146.64;100.00;36236.34;5069187;28;20413;-72
2022/05/17 10:43:53;;;;;;;11.20;4.03;;;;;;;-146.64;98.58;36291.56;5083299;28;20055;-74
2022/05/17 10:46:27;;;;;;;9.25;3.42;;;;;;;-146.64;97.34;36238.41;5068012;28;20475;-73
2022/05/17 10:49:00;;;;;;;4.90;2.70;;;;;;;-146.64;100.00;36256.81;5067721;28;20028;-72
2022/05/17 10:51:30;;;;;;;9.43;2.92;;;;;;;-146.64;95.06;36299.75;5083126;28;20056;-71
2022/05/17 10:54:24;;;;;;;11.02;4.25;;;;;;;-146.64;99.11;36158.63;5050011;28;20040;-72
2022/05/17 10:56:52;;;;;;;10.55;2.95;;;;;;;-146.64;93.16;36056.41;5062921;28;20134;-73
2022/05/17 10:59:26;;;;;;;8.50;3.83;;;;;;;-146.64;92.11;36056.41;5090395;28;20031;-72
2022/05/17 11:01:56;;;;;;;10.40;3.75;;;;;;;-146.64;94.50;36113.66;5087999;28;20107;-73
2022/05/17 11:05:01;;;;;;;12.98;3.85;;;;;;;-146.64;94.27;35993.00;5070946;28;20059;-72
2022/05/17 11:07:36;;;;;;;9.88;3.17;;;;;;;-146.64;91.31;35839.63;5055947;28;20080;-72
2022/05/17 11:10:15;;;;;;;8.23;3.45;;;;;;;-146.64;88.20;35778.28;5070376;28;20079;-73
2022/05/17 11:12:48;;;;;;;12.32;3.75;;;;;;;-146.64;89.09;35958.25;5070521;28;20047;-72
2022/05/17 11:15:40;;;;;;;10.20;3.45;;;;;;;-146.64;89.63;35774.22;5065647;28;20077;-73
2022/05/17 11:18:44;;;;;;;10.93;4.50;;;;;;;-146.64;84.56;35671.97;5064560;28;20043;-72
2022/05/17 11:21:21;;;;;;;14.95;4.03;;;;;;;-146.64;84.83;35602.44;5083245;28;20038;-74
2022/05/17 11:23:56;;;;;;;9.15;3.63;;;;;;;-146.64;85.55;35598.38;5067929;28;20039;-72